Laukaa, Finland
Kieli:  Suomi
CurCond
Päivitetty20/01/2020 21:02 
 

Lähistön Lentoasemien Säätiloja:

 

EFJY - Jyvaskyla (mil/C,) Finland
Etäisyys Sääasemalta: PKo 21km
Päivitetty: 20/01/2020 20:50
Enimmäkseen pilvistä
Enimmäkseen pilvistä
 Tuulen suunta Lo
Tuuli: Lo 20 km/h
Lämpötila: 3°C
Tuulen purevuus: -2°C
Kastepiste: 0°C
Ilmankosteus: 81%
Ilmanpaine: 1005 hPa
Pilvisyys: Enimmäkseen pilvistä
Näkyvyys: 10 km
Pilvisyystiedot: Enimmäkseen pilvistä 305 m
2020/01/20 18:50 EFJY 201850Z AUTO 23011KT 9999 BKN010 03/00 Q1005
EFHA - Halli (fin-Afb), Finland
Etäisyys Sääasemalta: Lo 56km
Päivitetty: 20/01/2020 20:50
Heikkoa sadetta, Kuurottaisia sateita, Puolipilvistä
Heikkoa sadetta, Kuurottaisia sateita, Puolipilvistä
 Tuulen suunta Lo
Tuuli: Lo 20 km/h, Puuskatuuli: 44 km/h
Lämpötila: 2°C
Tuulen purevuus: -3°C
Kastepiste: 0°C
Ilmankosteus: 87%
Ilmanpaine: 1008 hPa
Yhteenveto: Heikkoa sadetta, Kuurottaisia sateita
Pilvisyys: Puolipilvistä
Näkyvyys: 10 km
2020/01/20 18:50 EFHA 201850Z AUTO 23011G24KT 200V270 9999 -SHRA NSC 02/M00 Q1008
EFMI - Mikkeli, Finland
Etäisyys Sääasemalta: IKa 105km
Päivitetty: 20/01/2020 20:50
Enimmäkseen pilvistä
Enimmäkseen pilvistä
 Tuulen suunta Lo
Tuuli: Lo 17 km/h
Lämpötila: 2°C
Tuulen purevuus: -2°C
Kastepiste: 0°C
Ilmankosteus: 87%
Ilmanpaine: 1008 hPa
Pilvisyys: Enimmäkseen pilvistä
Näkyvyys: 10 km
Pilvisyystiedot: Enimmäkseen pilvistä 1219 m
Enimmäkseen pilvistä 1951 m
2020/01/20 18:50 EFMI 201850Z AUTO 22009KT 180V260 9999 BKN040 BKN064 02/M00 Q1008
 
EFTP - Tampere/Pirkkala, Finland
Etäisyys Sääasemalta: Lo 135km
Päivitetty: 20/01/2020 20:50
Joitain Pilviä
Joitain Pilviä
 Tuulen suunta Lo
Tuuli: Lo 22 km/h
Lämpötila: 3°C
Tuulen purevuus: -2°C
Kastepiste: 0°C
Ilmankosteus: 81%
Ilmanpaine: 1011 hPa
Pilvisyys: Joitain Pilviä
Näkyvyys: 10 km
Pilvisyystiedot: Joitain Pilviä 488 m
2020/01/20 18:50 EFTP 201850Z AUTO 23012KT 9999 FEW016 03/00 Q1011
EFKU - Kuopio (mil/Civ), Finland
Etäisyys Sääasemalta: Ko 146km
Päivitetty: 20/01/2020 20:50
Heikkoa sadetta, Pilvistä
Heikkoa sadetta, Pilvistä
 Tuulen suunta LLo
Tuuli: LLo 20 km/h
Lämpötila: 2°C
Tuulen purevuus: -3°C
Kastepiste: 2°C
Ilmankosteus: 100%
Ilmanpaine: 1003 hPa
Yhteenveto: Light Rain
Pilvisyys: Pilvistä
Näkyvyys: 4 km
Pilvisyystiedot: Pilvistä 183 m
2020/01/20 18:50 EFKU 201850Z AUTO 24011KT 4300 -RA OVC006 02/02 Q1003
EFSI - Seinajoki-Ilmajo, Finland
Etäisyys Sääasemalta: LLu 149km
Päivitetty: 20/01/2020 20:50
Selkeätä
Selkeätä
 Tuulen suunta LLo
Tuuli: LLo 15 km/h
Lämpötila: 5°C
Tuulen purevuus: 2°C
Kastepiste: 2°C
Ilmankosteus: 81%
Ilmanpaine: 1006 hPa
Yhteenveto: Selkeätä
Näkyvyys: Enemmän Kuin 10 km
2020/01/20 18:50 EFSI 201850Z AUTO 24008KT 180V290 CAVOK 05/02 Q1006